sensor_id;sensor_type;location;lat;lon;timestamp;temperature;humidity
8459;DHT22;4266;48.816;9.154;2022-12-08T00:02:11;0.70;99.90
8459;DHT22;4266;48.816;9.154;2022-12-08T00:04:37;0.80;99.90
8459;DHT22;4266;48.816;9.154;2022-12-08T00:07:03;0.90;99.90
8459;DHT22;4266;48.816;9.154;2022-12-08T00:09:36;1.00;99.90
8459;DHT22;4266;48.816;9.154;2022-12-08T00:12:05;0.90;99.90
8459;DHT22;4266;48.816;9.154;2022-12-08T00:14:31;0.90;99.90
8459;DHT22;4266;48.816;9.154;2022-12-08T00:16:56;0.90;99.90
8459;DHT22;4266;48.816;9.154;2022-12-08T00:19:22;0.90;99.90
8459;DHT22;4266;48.816;9.154;2022-12-08T00:21:48;1.00;99.90
8459;DHT22;4266;48.816;9.154;2022-12-08T00:24:13;0.90;99.90
8459;DHT22;4266;48.816;9.154;2022-12-08T00:26:39;0.90;99.90
8459;DHT22;4266;48.816;9.154;2022-12-08T00:29:05;1.00;99.90
8459;DHT22;4266;48.816;9.154;2022-12-08T00:31:31;0.90;99.90
8459;DHT22;4266;48.816;9.154;2022-12-08T00:33:57;0.90;99.90
8459;DHT22;4266;48.816;9.154;2022-12-08T00:36:23;0.90;99.90
8459;DHT22;4266;48.816;9.154;2022-12-08T00:38:49;0.80;99.90
8459;DHT22;4266;48.816;9.154;2022-12-08T00:41:16;0.80;99.90
8459;DHT22;4266;48.816;9.154;2022-12-08T00:43:40;0.70;99.90
8459;DHT22;4266;48.816;9.154;2022-12-08T00:46:06;0.60;99.90
8459;DHT22;4266;48.816;9.154;2022-12-08T00:48:32;0.40;99.90
8459;DHT22;4266;48.816;9.154;2022-12-08T00:50:57;0.30;99.90
8459;DHT22;4266;48.816;9.154;2022-12-08T00:53:23;0.20;99.90
8459;DHT22;4266;48.816;9.154;2022-12-08T00:55:49;0.20;99.90
8459;DHT22;4266;48.816;9.154;2022-12-08T00:58:15;0.00;99.90
8459;DHT22;4266;48.816;9.154;2022-12-08T01:00:41;-0.10;99.90
8459;DHT22;4266;48.816;9.154;2022-12-08T01:03:08;-0.10;99.90
8459;DHT22;4266;48.816;9.154;2022-12-08T01:05:32;0.00;99.90
8459;DHT22;4266;48.816;9.154;2022-12-08T01:07:57;0.00;99.90
8459;DHT22;4266;48.816;9.154;2022-12-08T01:10:23;0.00;99.90
8459;DHT22;4266;48.816;9.154;2022-12-08T01:12:49;0.00;99.90
8459;DHT22;4266;48.816;9.154;2022-12-08T01:15:15;0.00;99.90
8459;DHT22;4266;48.816;9.154;2022-12-08T01:17:40;-0.10;99.90
8459;DHT22;4266;48.816;9.154;2022-12-08T01:20:07;-0.10;99.90
8459;DHT22;4266;48.816;9.154;2022-12-08T01:22:33;-0.30;99.90
8459;DHT22;4266;48.816;9.154;2022-12-08T01:24:58;-0.40;99.90
8459;DHT22;4266;48.816;9.154;2022-12-08T01:27:24;-0.40;99.90
8459;DHT22;4266;48.816;9.154;2022-12-08T01:29:50;-0.50;99.90
8459;DHT22;4266;48.816;9.154;2022-12-08T01:32:15;-0.60;99.90
8459;DHT22;4266;48.816;9.154;2022-12-08T01:34:41;-0.60;99.90
8459;DHT22;4266;48.816;9.154;2022-12-08T01:37:07;-0.70;99.90
8459;DHT22;4266;48.816;9.154;2022-12-08T01:39:33;-0.70;99.90
8459;DHT22;4266;48.816;9.154;2022-12-08T01:41:58;-0.70;99.90
8459;DHT22;4266;48.816;9.154;2022-12-08T01:44:49;-0.70;99.90
8459;DHT22;4266;48.816;9.154;2022-12-08T01:47:15;-0.70;99.90
8459;DHT22;4266;48.816;9.154;2022-12-08T01:49:41;-0.70;99.90
8459;DHT22;4266;48.816;9.154;2022-12-08T01:52:10;-0.70;99.90
8459;DHT22;4266;48.816;9.154;2022-12-08T01:54:35;-0.80;99.90
8459;DHT22;4266;48.816;9.154;2022-12-08T01:57:02;-0.80;99.90
8459;DHT22;4266;48.816;9.154;2022-12-08T01:59:25;-0.90;99.90
8459;DHT22;4266;48.816;9.154;2022-12-08T02:01:51;-1.00;99.90
8459;DHT22;4266;48.816;9.154;2022-12-08T02:04:17;-1.00;99.90
8459;DHT22;4266;48.816;9.154;2022-12-08T02:06:42;-1.10;99.90
8459;DHT22;4266;48.816;9.154;2022-12-08T02:09:08;-1.10;99.90
8459;DHT22;4266;48.816;9.154;2022-12-08T02:11:35;-1.10;99.90
8459;DHT22;4266;48.816;9.154;2022-12-08T02:14:01;-1.20;99.90
8459;DHT22;4266;48.816;9.154;2022-12-08T02:19:01;-1.20;99.90
8459;DHT22;4266;48.816;9.154;2022-12-08T02:21:28;-1.20;99.90
8459;DHT22;4266;48.816;9.154;2022-12-08T02:24:07;-1.30;99.90
8459;DHT22;4266;48.816;9.154;2022-12-08T02:29:38;-1.30;99.90
8459;DHT22;4266;48.816;9.154;2022-12-08T02:32:20;-1.30;99.90
8459;DHT22;4266;48.816;9.154;2022-12-08T02:34:46;-1.30;99.90
8459;DHT22;4266;48.816;9.154;2022-12-08T02:39:47;-1.20;99.90
8459;DHT22;4266;48.816;9.154;2022-12-08T02:42:20;-1.20;99.90
8459;DHT22;4266;48.816;9.154;2022-12-08T02:44:56;-1.20;99.90
8459;DHT22;4266;48.816;9.154;2022-12-08T02:47:21;-1.30;99.90
8459;DHT22;4266;48.816;9.154;2022-12-08T02:49:47;-1.30;99.90
8459;DHT22;4266;48.816;9.154;2022-12-08T02:55:10;-1.30;99.90
8459;DHT22;4266;48.816;9.154;2022-12-08T02:57:51;-1.20;99.90
8459;DHT22;4266;48.816;9.154;2022-12-08T03:00:15;-1.10;99.90
8459;DHT22;4266;48.816;9.154;2022-12-08T03:03:08;-1.00;99.90
8459;DHT22;4266;48.816;9.154;2022-12-08T03:05:40;-1.00;99.90
8459;DHT22;4266;48.816;9.154;2022-12-08T03:11:02;-0.90;99.90
8459;DHT22;4266;48.816;9.154;2022-12-08T03:13:30;-0.90;99.90
8459;DHT22;4266;48.816;9.154;2022-12-08T03:15:54;-0.90;99.90
8459;DHT22;4266;48.816;9.154;2022-12-08T03:18:21;-1.00;99.90
8459;DHT22;4266;48.816;9.154;2022-12-08T03:20:46;-1.00;99.90
8459;DHT22;4266;48.816;9.154;2022-12-08T03:23:12;-1.10;99.90
8459;DHT22;4266;48.816;9.154;2022-12-08T03:25:40;-1.00;99.90
8459;DHT22;4266;48.816;9.154;2022-12-08T03:28:04;-1.00;99.90
8459;DHT22;4266;48.816;9.154;2022-12-08T03:30:31;-1.20;99.90
8459;DHT22;4266;48.816;9.154;2022-12-08T03:33:00;-1.30;99.90
8459;DHT22;4266;48.816;9.154;2022-12-08T03:35:25;-1.30;99.90
8459;DHT22;4266;48.816;9.154;2022-12-08T03:37:49;-1.40;99.90
8459;DHT22;4266;48.816;9.154;2022-12-08T03:40:16;-1.40;99.90
8459;DHT22;4266;48.816;9.154;2022-12-08T03:42:40;-1.50;99.90
8459;DHT22;4266;48.816;9.154;2022-12-08T03:45:07;-1.60;99.90
8459;DHT22;4266;48.816;9.154;2022-12-08T03:47:32;-1.70;99.90
8459;DHT22;4266;48.816;9.154;2022-12-08T03:49:58;-1.70;99.90
8459;DHT22;4266;48.816;9.154;2022-12-08T03:52:24;-1.70;99.90
8459;DHT22;4266;48.816;9.154;2022-12-08T03:54:50;-1.70;99.90
8459;DHT22;4266;48.816;9.154;2022-12-08T03:57:15;-1.60;99.90
8459;DHT22;4266;48.816;9.154;2022-12-08T03:59:41;-1.60;99.90
8459;DHT22;4266;48.816;9.154;2022-12-08T04:02:07;-1.50;99.90
8459;DHT22;4266;48.816;9.154;2022-12-08T04:04:33;-1.40;99.90
8459;DHT22;4266;48.816;9.154;2022-12-08T04:06:58;-1.50;99.90
8459;DHT22;4266;48.816;9.154;2022-12-08T04:09:24;-1.60;99.90
8459;DHT22;4266;48.816;9.154;2022-12-08T04:11:50;-1.60;99.90
8459;DHT22;4266;48.816;9.154;2022-12-08T04:14:15;-1.60;99.90
8459;DHT22;4266;48.816;9.154;2022-12-08T04:16:41;-1.70;99.90
8459;DHT22;4266;48.816;9.154;2022-12-08T04:19:07;-1.70;99.90
8459;DHT22;4266;48.816;9.154;2022-12-08T04:21:33;-1.70;99.90
8459;DHT22;4266;48.816;9.154;2022-12-08T04:23:58;-1.70;99.90
8459;DHT22;4266;48.816;9.154;2022-12-08T04:26:24;-1.60;99.90
8459;DHT22;4266;48.816;9.154;2022-12-08T04:28:50;-1.60;99.90
8459;DHT22;4266;48.816;9.154;2022-12-08T04:31:16;-1.60;99.90
8459;DHT22;4266;48.816;9.154;2022-12-08T04:33:41;-1.70;99.90
8459;DHT22;4266;48.816;9.154;2022-12-08T04:36:08;-1.80;99.90
8459;DHT22;4266;48.816;9.154;2022-12-08T04:38:33;-1.80;99.90
8459;DHT22;4266;48.816;9.154;2022-12-08T04:40:59;-1.80;99.90
8459;DHT22;4266;48.816;9.154;2022-12-08T04:43:25;-1.70;99.90
8459;DHT22;4266;48.816;9.154;2022-12-08T04:45:51;-1.70;99.90
8459;DHT22;4266;48.816;9.154;2022-12-08T04:48:17;-1.70;99.90
8459;DHT22;4266;48.816;9.154;2022-12-08T04:50:43;-1.70;99.90
8459;DHT22;4266;48.816;9.154;2022-12-08T04:53:10;-1.70;99.90
8459;DHT22;4266;48.816;9.154;2022-12-08T04:55:37;-1.70;99.90
8459;DHT22;4266;48.816;9.154;2022-12-08T04:58:02;-1.70;99.90
8459;DHT22;4266;48.816;9.154;2022-12-08T05:00:28;-1.70;99.90
8459;DHT22;4266;48.816;9.154;2022-12-08T05:02:53;-1.70;99.90
8459;DHT22;4266;48.816;9.154;2022-12-08T05:05:19;-1.80;99.90
8459;DHT22;4266;48.816;9.154;2022-12-08T05:07:45;-1.80;99.90
8459;DHT22;4266;48.816;9.154;2022-12-08T05:10:11;-1.80;99.90
8459;DHT22;4266;48.816;9.154;2022-12-08T05:12:37;-1.80;99.90
8459;DHT22;4266;48.816;9.154;2022-12-08T05:15:03;-1.80;99.90
8459;DHT22;4266;48.816;9.154;2022-12-08T05:17:30;-1.90;99.90
8459;DHT22;4266;48.816;9.154;2022-12-08T05:19:56;-1.90;99.90
8459;DHT22;4266;48.816;9.154;2022-12-08T05:22:22;-2.00;99.90
8459;DHT22;4266;48.816;9.154;2022-12-08T05:24:47;-1.90;99.90
8459;DHT22;4266;48.816;9.154;2022-12-08T05:27:13;-1.90;99.90
8459;DHT22;4266;48.816;9.154;2022-12-08T05:29:39;-1.90;99.90
8459;DHT22;4266;48.816;9.154;2022-12-08T05:32:05;-1.80;99.90
8459;DHT22;4266;48.816;9.154;2022-12-08T05:34:31;-1.80;99.90
8459;DHT22;4266;48.816;9.154;2022-12-08T05:36:56;-1.80;99.90
8459;DHT22;4266;48.816;9.154;2022-12-08T05:39:22;-1.80;99.90
8459;DHT22;4266;48.816;9.154;2022-12-08T05:41:48;-1.80;99.90
8459;DHT22;4266;48.816;9.154;2022-12-08T05:44:14;-1.90;99.90
8459;DHT22;4266;48.816;9.154;2022-12-08T05:46:39;-1.80;99.90
8459;DHT22;4266;48.816;9.154;2022-12-08T05:49:05;-1.80;99.90
8459;DHT22;4266;48.816;9.154;2022-12-08T05:51:31;-1.80;99.90
8459;DHT22;4266;48.816;9.154;2022-12-08T05:53:57;-1.80;99.90
8459;DHT22;4266;48.816;9.154;2022-12-08T05:56:23;-1.80;99.90
8459;DHT22;4266;48.816;9.154;2022-12-08T05:58:48;-1.80;99.90
8459;DHT22;4266;48.816;9.154;2022-12-08T06:01:26;-1.90;99.90
8459;DHT22;4266;48.816;9.154;2022-12-08T06:03:53;-1.80;99.90
8459;DHT22;4266;48.816;9.154;2022-12-08T06:06:19;-1.90;99.90
8459;DHT22;4266;48.816;9.154;2022-12-08T06:08:45;-1.90;99.90
8459;DHT22;4266;48.816;9.154;2022-12-08T06:11:18;-1.80;99.90
8459;DHT22;4266;48.816;9.154;2022-12-08T06:13:43;-1.80;99.90
8459;DHT22;4266;48.816;9.154;2022-12-08T06:16:09;-1.80;99.90
8459;DHT22;4266;48.816;9.154;2022-12-08T06:18:35;-1.90;99.90
8459;DHT22;4266;48.816;9.154;2022-12-08T06:21:03;-2.00;99.90
8459;DHT22;4266;48.816;9.154;2022-12-08T06:23:29;-1.90;99.90
8459;DHT22;4266;48.816;9.154;2022-12-08T06:25:54;-1.90;99.90
8459;DHT22;4266;48.816;9.154;2022-12-08T06:28:20;-1.90;99.90
8459;DHT22;4266;48.816;9.154;2022-12-08T06:30:46;-2.00;99.90
8459;DHT22;4266;48.816;9.154;2022-12-08T06:33:12;-2.00;99.90
8459;DHT22;4266;48.816;9.154;2022-12-08T06:35:38;-2.00;99.90
8459;DHT22;4266;48.816;9.154;2022-12-08T06:38:04;-2.10;99.90
8459;DHT22;4266;48.816;9.154;2022-12-08T06:40:29;-2.10;99.90
8459;DHT22;4266;48.816;9.154;2022-12-08T06:42:55;-2.20;99.90
8459;DHT22;4266;48.816;9.154;2022-12-08T06:45:22;-2.10;99.90
8459;DHT22;4266;48.816;9.154;2022-12-08T06:47:48;-2.10;99.90
8459;DHT22;4266;48.816;9.154;2022-12-08T06:50:14;-2.10;99.90
8459;DHT22;4266;48.816;9.154;2022-12-08T06:52:40;-2.10;99.90
8459;DHT22;4266;48.816;9.154;2022-12-08T06:55:07;-2.00;99.90
8459;DHT22;4266;48.816;9.154;2022-12-08T06:57:34;-2.00;99.90
8459;DHT22;4266;48.816;9.154;2022-12-08T07:00:00;-2.00;99.90
8459;DHT22;4266;48.816;9.154;2022-12-08T07:02:26;-2.00;99.90
8459;DHT22;4266;48.816;9.154;2022-12-08T07:04:52;-1.90;99.90
8459;DHT22;4266;48.816;9.154;2022-12-08T07:07:18;-2.10;99.90
8459;DHT22;4266;48.816;9.154;2022-12-08T07:09:43;-2.00;99.90
8459;DHT22;4266;48.816;9.154;2022-12-08T07:12:10;-1.80;99.90
8459;DHT22;4266;48.816;9.154;2022-12-08T07:14:36;-1.90;99.90
8459;DHT22;4266;48.816;9.154;2022-12-08T07:17:01;-1.70;99.90
8459;DHT22;4266;48.816;9.154;2022-12-08T07:19:27;-1.60;99.90
8459;DHT22;4266;48.816;9.154;2022-12-08T07:21:53;-1.70;99.90
8459;DHT22;4266;48.816;9.154;2022-12-08T07:24:19;-1.70;99.90
8459;DHT22;4266;48.816;9.154;2022-12-08T07:26:44;-1.60;99.90
8459;DHT22;4266;48.816;9.154;2022-12-08T07:29:11;-1.40;99.90
8459;DHT22;4266;48.816;9.154;2022-12-08T07:31:37;-1.40;99.90
8459;DHT22;4266;48.816;9.154;2022-12-08T07:34:03;-1.30;99.90
8459;DHT22;4266;48.816;9.154;2022-12-08T07:36:30;-1.20;99.90
8459;DHT22;4266;48.816;9.154;2022-12-08T07:38:56;-1.20;99.90
8459;DHT22;4266;48.816;9.154;2022-12-08T07:41:23;-1.10;99.90
8459;DHT22;4266;48.816;9.154;2022-12-08T07:43:48;1.30;99.90
8459;DHT22;4266;48.816;9.154;2022-12-08T07:46:15;1.30;99.90
8459;DHT22;4266;48.816;9.154;2022-12-08T07:48:40;2.50;96.30
8459;DHT22;4266;48.816;9.154;2022-12-08T07:51:06;3.10;94.50
8459;DHT22;4266;48.816;9.154;2022-12-08T07:53:31;3.40;93.10
8459;DHT22;4266;48.816;9.154;2022-12-08T07:55:57;3.90;93.30
8459;DHT22;4266;48.816;9.154;2022-12-08T07:58:23;4.70;92.30
8459;DHT22;4266;48.816;9.154;2022-12-08T08:00:48;5.30;91.30
8459;DHT22;4266;48.816;9.154;2022-12-08T08:03:14;5.70;90.70
8459;DHT22;4266;48.816;9.154;2022-12-08T08:05:40;6.30;90.30
8459;DHT22;4266;48.816;9.154;2022-12-08T08:08:06;6.10;89.50
8459;DHT22;4266;48.816;9.154;2022-12-08T08:10:31;6.20;87.80
8459;DHT22;4266;48.816;9.154;2022-12-08T08:12:58;6.90;85.30
8459;DHT22;4266;48.816;9.154;2022-12-08T08:15:23;6.90;85.20
8459;DHT22;4266;48.816;9.154;2022-12-08T08:17:49;7.20;85.10
8459;DHT22;4266;48.816;9.154;2022-12-08T08:20:15;7.70;84.10
8459;DHT22;4266;48.816;9.154;2022-12-08T08:22:41;8.60;82.80
8459;DHT22;4266;48.816;9.154;2022-12-08T08:25:07;8.70;82.50
8459;DHT22;4266;48.816;9.154;2022-12-08T08:27:39;9.00;81.40
8459;DHT22;4266;48.816;9.154;2022-12-08T08:30:06;9.00;81.40
8459;DHT22;4266;48.816;9.154;2022-12-08T08:32:32;9.50;79.30
8459;DHT22;4266;48.816;9.154;2022-12-08T08:34:57;10.60;75.30
8459;DHT22;4266;48.816;9.154;2022-12-08T08:37:23;10.80;74.00
8459;DHT22;4266;48.816;9.154;2022-12-08T08:39:49;10.90;74.40
8459;DHT22;4266;48.816;9.154;2022-12-08T08:42:14;10.80;71.70
8459;DHT22;4266;48.816;9.154;2022-12-08T08:44:41;11.10;71.20
8459;DHT22;4266;48.816;9.154;2022-12-08T08:47:06;11.50;70.80
8459;DHT22;4266;48.816;9.154;2022-12-08T08:49:32;11.80;70.80
8459;DHT22;4266;48.816;9.154;2022-12-08T08:51:58;11.30;69.10
8459;DHT22;4266;48.816;9.154;2022-12-08T08:54:24;11.70;68.20
8459;DHT22;4266;48.816;9.154;2022-12-08T08:56:49;11.50;68.70
8459;DHT22;4266;48.816;9.154;2022-12-08T08:59:15;12.60;67.20
8459;DHT22;4266;48.816;9.154;2022-12-08T09:01:41;13.20;66.50
8459;DHT22;4266;48.816;9.154;2022-12-08T09:04:07;12.90;65.20
8459;DHT22;4266;48.816;9.154;2022-12-08T09:06:32;13.40;64.30
8459;DHT22;4266;48.816;9.154;2022-12-08T09:08:58;13.60;64.00
8459;DHT22;4266;48.816;9.154;2022-12-08T09:11:24;13.10;63.40
8459;DHT22;4266;48.816;9.154;2022-12-08T09:13:50;13.90;61.60
8459;DHT22;4266;48.816;9.154;2022-12-08T09:16:15;13.60;62.10
8459;DHT22;4266;48.816;9.154;2022-12-08T09:18:41;14.10;60.50
8459;DHT22;4266;48.816;9.154;2022-12-08T09:21:09;13.60;62.50
8459;DHT22;4266;48.816;9.154;2022-12-08T09:23:34;13.70;60.10
8459;DHT22;4266;48.816;9.154;2022-12-08T09:25:59;13.70;60.70
8459;DHT22;4266;48.816;9.154;2022-12-08T09:28:25;13.40;59.20
8459;DHT22;4266;48.816;9.154;2022-12-08T09:30:51;14.20;59.70
8459;DHT22;4266;48.816;9.154;2022-12-08T09:33:17;14.50;58.90
8459;DHT22;4266;48.816;9.154;2022-12-08T09:35:43;14.50;58.80
8459;DHT22;4266;48.816;9.154;2022-12-08T09:38:09;15.50;58.80
8459;DHT22;4266;48.816;9.154;2022-12-08T09:40:36;16.10;57.60
8459;DHT22;4266;48.816;9.154;2022-12-08T09:43:06;16.40;56.40
8459;DHT22;4266;48.816;9.154;2022-12-08T09:45:29;15.90;56.20
8459;DHT22;4266;48.816;9.154;2022-12-08T09:47:59;15.80;55.50
8459;DHT22;4266;48.816;9.154;2022-12-08T09:50:35;15.80;55.90
8459;DHT22;4266;48.816;9.154;2022-12-08T09:53:08;16.60;55.40
8459;DHT22;4266;48.816;9.154;2022-12-08T09:55:49;14.70;55.20
8459;DHT22;4266;48.816;9.154;2022-12-08T09:58:19;16.50;54.70
8459;DHT22;4266;48.816;9.154;2022-12-08T10:00:44;16.20;54.10
8459;DHT22;4266;48.816;9.154;2022-12-08T10:03:11;16.70;53.90
8459;DHT22;4266;48.816;9.154;2022-12-08T10:05:38;15.90;52.50
8459;DHT22;4266;48.816;9.154;2022-12-08T10:08:07;16.80;52.70
8459;DHT22;4266;48.816;9.154;2022-12-08T10:10:48;16.10;53.10
8459;DHT22;4266;48.816;9.154;2022-12-08T10:13:21;16.40;53.40
8459;DHT22;4266;48.816;9.154;2022-12-08T10:15:56;15.80;51.70
8459;DHT22;4266;48.816;9.154;2022-12-08T10:18:20;16.60;52.00
8459;DHT22;4266;48.816;9.154;2022-12-08T10:20:45;17.30;51.70
8459;DHT22;4266;48.816;9.154;2022-12-08T10:23:32;16.70;50.60
8459;DHT22;4266;48.816;9.154;2022-12-08T10:26:01;15.60;50.60
8459;DHT22;4266;48.816;9.154;2022-12-08T10:28:26;16.00;51.20
8459;DHT22;4266;48.816;9.154;2022-12-08T10:30:52;15.50;50.50
8459;DHT22;4266;48.816;9.154;2022-12-08T10:33:37;13.10;50.80
8459;DHT22;4266;48.816;9.154;2022-12-08T10:36:04;13.00;50.70
8459;DHT22;4266;48.816;9.154;2022-12-08T10:38:32;11.70;51.30
8459;DHT22;4266;48.816;9.154;2022-12-08T10:41:04;10.80;51.70
8459;DHT22;4266;48.816;9.154;2022-12-08T10:43:29;8.80;53.40
8459;DHT22;4266;48.816;9.154;2022-12-08T10:45:54;8.50;54.10
8459;DHT22;4266;48.816;9.154;2022-12-08T10:48:23;8.10;54.30
8459;DHT22;4266;48.816;9.154;2022-12-08T10:50:53;8.20;55.60
8459;DHT22;4266;48.816;9.154;2022-12-08T10:53:20;7.70;55.90
8459;DHT22;4266;48.816;9.154;2022-12-08T10:55:50;6.90;57.70
8459;DHT22;4266;48.816;9.154;2022-12-08T10:58:24;6.70;57.50
8459;DHT22;4266;48.816;9.154;2022-12-08T11:00:51;6.70;57.40
8459;DHT22;4266;48.816;9.154;2022-12-08T11:03:21;6.30;58.80
8459;DHT22;4266;48.816;9.154;2022-12-08T11:05:47;6.20;59.70
8459;DHT22;4266;48.816;9.154;2022-12-08T11:08:13;6.00;60.10
8459;DHT22;4266;48.816;9.154;2022-12-08T11:10:42;6.00;60.00
8459;DHT22;4266;48.816;9.154;2022-12-08T11:13:11;5.90;61.00
8459;DHT22;4266;48.816;9.154;2022-12-08T11:15:34;5.90;61.60
8459;DHT22;4266;48.816;9.154;2022-12-08T11:17:59;6.00;61.90
8459;DHT22;4266;48.816;9.154;2022-12-08T11:20:25;6.00;62.30
8459;DHT22;4266;48.816;9.154;2022-12-08T11:22:52;5.90;62.70
8459;DHT22;4266;48.816;9.154;2022-12-08T11:25:20;5.90;63.50
8459;DHT22;4266;48.816;9.154;2022-12-08T11:27:47;5.80;63.90
8459;DHT22;4266;48.816;9.154;2022-12-08T11:30:17;5.70;64.50
8459;DHT22;4266;48.816;9.154;2022-12-08T11:32:42;5.80;64.40
8459;DHT22;4266;48.816;9.154;2022-12-08T11:38:03;5.40;64.80
8459;DHT22;4266;48.816;9.154;2022-12-08T11:40:29;5.30;65.30
8459;DHT22;4266;48.816;9.154;2022-12-08T11:42:58;5.50;65.60
8459;DHT22;4266;48.816;9.154;2022-12-08T11:45:23;5.30;65.10
8459;DHT22;4266;48.816;9.154;2022-12-08T11:47:48;5.30;66.60
8459;DHT22;4266;48.816;9.154;2022-12-08T11:50:32;5.40;66.10
8459;DHT22;4266;48.816;9.154;2022-12-08T11:52:56;5.40;66.10
8459;DHT22;4266;48.816;9.154;2022-12-08T11:55:29;5.50;66.50
8459;DHT22;4266;48.816;9.154;2022-12-08T11:57:54;5.50;66.40
8459;DHT22;4266;48.816;9.154;2022-12-08T12:00:20;5.50;66.20
8459;DHT22;4266;48.816;9.154;2022-12-08T12:02:48;5.50;66.50
8459;DHT22;4266;48.816;9.154;2022-12-08T12:05:38;5.70;66.60
8459;DHT22;4266;48.816;9.154;2022-12-08T12:08:12;5.40;67.20
8459;DHT22;4266;48.816;9.154;2022-12-08T12:10:45;5.40;67.20
8459;DHT22;4266;48.816;9.154;2022-12-08T12:13:51;5.50;66.00
8459;DHT22;4266;48.816;9.154;2022-12-08T12:18:47;5.50;67.00
8459;DHT22;4266;48.816;9.154;2022-12-08T12:21:14;5.50;66.90
8459;DHT22;4266;48.816;9.154;2022-12-08T12:23:39;5.40;67.50
8459;DHT22;4266;48.816;9.154;2022-12-08T12:26:05;5.60;66.90
8459;DHT22;4266;48.816;9.154;2022-12-08T12:28:33;5.50;67.00
8459;DHT22;4266;48.816;9.154;2022-12-08T12:30:59;5.40;67.50
8459;DHT22;4266;48.816;9.154;2022-12-08T12:33:24;5.40;67.80
8459;DHT22;4266;48.816;9.154;2022-12-08T12:35:49;5.40;67.70
8459;DHT22;4266;48.816;9.154;2022-12-08T12:38:24;5.50;68.90
8459;DHT22;4266;48.816;9.154;2022-12-08T12:40:59;5.50;69.70
8459;DHT22;4266;48.816;9.154;2022-12-08T12:43:27;5.50;69.80
8459;DHT22;4266;48.816;9.154;2022-12-08T12:45:50;5.70;71.30
8459;DHT22;4266;48.816;9.154;2022-12-08T12:48:20;5.60;70.10
8459;DHT22;4266;48.816;9.154;2022-12-08T12:50:45;5.40;69.20
8459;DHT22;4266;48.816;9.154;2022-12-08T12:53:45;5.40;69.50
8459;DHT22;4266;48.816;9.154;2022-12-08T12:55:58;5.50;70.10
8459;DHT22;4266;48.816;9.154;2022-12-08T12:58:35;5.50;70.20
8459;DHT22;4266;48.816;9.154;2022-12-08T13:03:49;5.50;72.60
8459;DHT22;4266;48.816;9.154;2022-12-08T13:06:20;5.60;72.30
8459;DHT22;4266;48.816;9.154;2022-12-08T13:08:40;5.60;71.10
8459;DHT22;4266;48.816;9.154;2022-12-08T13:11:06;5.50;71.40
8459;DHT22;4266;48.816;9.154;2022-12-08T13:13:31;5.30;70.80
8459;DHT22;4266;48.816;9.154;2022-12-08T13:16:04;5.30;71.40
8459;DHT22;4266;48.816;9.154;2022-12-08T13:18:36;5.20;72.20
8459;DHT22;4266;48.816;9.154;2022-12-08T13:21:04;5.30;72.20
8459;DHT22;4266;48.816;9.154;2022-12-08T13:26:23;5.30;73.20
8459;DHT22;4266;48.816;9.154;2022-12-08T13:29:12;5.30;72.90
8459;DHT22;4266;48.816;9.154;2022-12-08T13:31:46;5.10;73.20
8459;DHT22;4266;48.816;9.154;2022-12-08T13:34:16;5.10;74.00
8459;DHT22;4266;48.816;9.154;2022-12-08T13:36:46;5.10;74.80
8459;DHT22;4266;48.816;9.154;2022-12-08T13:39:11;5.20;75.00
8459;DHT22;4266;48.816;9.154;2022-12-08T13:41:34;5.20;75.30
8459;DHT22;4266;48.816;9.154;2022-12-08T13:44:01;5.10;75.50
8459;DHT22;4266;48.816;9.154;2022-12-08T13:46:30;5.00;76.50
8459;DHT22;4266;48.816;9.154;2022-12-08T13:48:53;4.90;76.50
8459;DHT22;4266;48.816;9.154;2022-12-08T13:51:21;4.80;78.20
8459;DHT22;4266;48.816;9.154;2022-12-08T13:54:05;4.80;78.10
8459;DHT22;4266;48.816;9.154;2022-12-08T13:56:29;4.80;77.70
8459;DHT22;4266;48.816;9.154;2022-12-08T13:59:06;4.80;77.10
8459;DHT22;4266;48.816;9.154;2022-12-08T14:01:37;4.80;78.10
8459;DHT22;4266;48.816;9.154;2022-12-08T14:04:03;4.80;78.40
8459;DHT22;4266;48.816;9.154;2022-12-08T14:06:52;4.80;78.90
8459;DHT22;4266;48.816;9.154;2022-12-08T14:15:15;4.70;79.80
8459;DHT22;4266;48.816;9.154;2022-12-08T14:17:56;4.60;80.00
8459;DHT22;4266;48.816;9.154;2022-12-08T14:20:44;4.50;80.60
8459;DHT22;4266;48.816;9.154;2022-12-08T14:23:16;4.50;80.40
8459;DHT22;4266;48.816;9.154;2022-12-08T14:26:20;4.40;79.00
8459;DHT22;4266;48.816;9.154;2022-12-08T14:28:37;4.40;79.30
8459;DHT22;4266;48.816;9.154;2022-12-08T14:31:03;4.40;79.30
8459;DHT22;4266;48.816;9.154;2022-12-08T14:33:30;4.40;79.40
8459;DHT22;4266;48.816;9.154;2022-12-08T14:35:56;4.40;79.10
8459;DHT22;4266;48.816;9.154;2022-12-08T14:38:23;4.20;79.60
8459;DHT22;4266;48.816;9.154;2022-12-08T14:41:02;4.20;79.50
8459;DHT22;4266;48.816;9.154;2022-12-08T14:43:27;4.20;79.40
8459;DHT22;4266;48.816;9.154;2022-12-08T14:46:04;4.30;78.80
8459;DHT22;4266;48.816;9.154;2022-12-08T14:48:42;4.30;79.40
8459;DHT22;4266;48.816;9.154;2022-12-08T14:56:53;4.20;79.40
8459;DHT22;4266;48.816;9.154;2022-12-08T14:59:20;4.20;79.60
8459;DHT22;4266;48.816;9.154;2022-12-08T15:01:46;4.00;80.40
8459;DHT22;4266;48.816;9.154;2022-12-08T15:04:14;4.00;80.40
8459;DHT22;4266;48.816;9.154;2022-12-08T15:06:46;4.00;80.50
8459;DHT22;4266;48.816;9.154;2022-12-08T15:09:15;4.00;81.00
8459;DHT22;4266;48.816;9.154;2022-12-08T15:11:40;3.90;81.60
8459;DHT22;4266;48.816;9.154;2022-12-08T15:16:44;3.90;81.40
8459;DHT22;4266;48.816;9.154;2022-12-08T15:19:15;3.90;80.80
8459;DHT22;4266;48.816;9.154;2022-12-08T15:21:40;3.90;81.10
8459;DHT22;4266;48.816;9.154;2022-12-08T15:24:08;3.80;81.60
8459;DHT22;4266;48.816;9.154;2022-12-08T15:26:33;3.80;81.50
8459;DHT22;4266;48.816;9.154;2022-12-08T15:28:57;3.80;81.50
8459;DHT22;4266;48.816;9.154;2022-12-08T15:31:23;3.80;81.70
8459;DHT22;4266;48.816;9.154;2022-12-08T15:33:49;3.80;81.90
8459;DHT22;4266;48.816;9.154;2022-12-08T15:36:15;3.80;82.50
8459;DHT22;4266;48.816;9.154;2022-12-08T15:38:40;3.70;81.80
8459;DHT22;4266;48.816;9.154;2022-12-08T15:41:06;3.80;82.50
8459;DHT22;4266;48.816;9.154;2022-12-08T15:43:32;3.70;81.90
8459;DHT22;4266;48.816;9.154;2022-12-08T15:45:57;3.70;82.30
8459;DHT22;4266;48.816;9.154;2022-12-08T15:48:24;3.60;81.90
8459;DHT22;4266;48.816;9.154;2022-12-08T15:50:49;3.60;82.10
8459;DHT22;4266;48.816;9.154;2022-12-08T15:53:15;3.60;82.00
8459;DHT22;4266;48.816;9.154;2022-12-08T15:55:41;3.60;81.80
8459;DHT22;4266;48.816;9.154;2022-12-08T15:58:06;3.60;82.10
8459;DHT22;4266;48.816;9.154;2022-12-08T16:00:34;3.50;82.10
8459;DHT22;4266;48.816;9.154;2022-12-08T16:02:58;3.50;82.00
8459;DHT22;4266;48.816;9.154;2022-12-08T16:05:23;3.50;81.90
8459;DHT22;4266;48.816;9.154;2022-12-08T16:07:49;3.50;82.40
8459;DHT22;4266;48.816;9.154;2022-12-08T16:10:19;3.50;82.20
8459;DHT22;4266;48.816;9.154;2022-12-08T16:12:43;3.50;82.30
8459;DHT22;4266;48.816;9.154;2022-12-08T16:15:14;3.30;82.50
8459;DHT22;4266;48.816;9.154;2022-12-08T16:17:40;3.40;83.10
8459;DHT22;4266;48.816;9.154;2022-12-08T16:20:10;3.40;82.20
8459;DHT22;4266;48.816;9.154;2022-12-08T16:22:33;3.30;82.10
8459;DHT22;4266;48.816;9.154;2022-12-08T16:24:59;3.30;82.00
8459;DHT22;4266;48.816;9.154;2022-12-08T16:27:26;3.30;82.40
8459;DHT22;4266;48.816;9.154;2022-12-08T16:29:51;3.30;82.60
8459;DHT22;4266;48.816;9.154;2022-12-08T16:32:17;3.30;82.60
8459;DHT22;4266;48.816;9.154;2022-12-08T16:34:42;3.10;82.30
8459;DHT22;4266;48.816;9.154;2022-12-08T16:37:13;3.20;82.60
8459;DHT22;4266;48.816;9.154;2022-12-08T16:39:34;3.10;82.50
8459;DHT22;4266;48.816;9.154;2022-12-08T16:41:59;3.10;82.70
8459;DHT22;4266;48.816;9.154;2022-12-08T16:44:31;3.10;82.70
8459;DHT22;4266;48.816;9.154;2022-12-08T16:46:57;3.10;82.40
8459;DHT22;4266;48.816;9.154;2022-12-08T16:49:23;3.10;82.70
8459;DHT22;4266;48.816;9.154;2022-12-08T16:51:49;3.10;83.70